Wolgastern — CQLH — position and weather

sailwx.info

Track history (hours):
 
Tides and Currents Weather Stations Pressure Air Temp Water Temp Dewpoint Dewpoint Depression Visibility Wind Speed Wind Dir Waves Ship Positions

Wolgastern

Last reported at 2014-Oct-23 08:32 UTC. Time now 2014-Oct-23 11:03 UTC.
Position N 58°07' E 005°55'.

Length 162 m; draft 6.2 m.

Type: Ship. MMSI: 255804950.

Date/timePositionNaut miles runAvg speedWind from/ knotsBaromVisibWave heightAir tempDewpointWater temp
2014-Oct-23 08:32N 58°07' E 005°55'6312.2
2014-Oct-23 03:23N 57°46' E 007°47'1311.5
2014-Oct-23 02:13N 57°47' E 008°12'913.4
2014-Oct-23 01:33N 57°48' E 008°29'5011.6
2014-Oct-22 21:17N 57°51' E 010°02'912.7
2014-Oct-22 20:33N 57°51' E 010°19'1211.8
2014-Oct-22 19:34N 57°51' E 010°42'1413.3
2014-Oct-22 18:32N 57°41' E 011°00'1313.3
2014-Oct-22 17:34N 57°33' E 011°18'1312.8
2014-Oct-22 16:33N 57°22' E 011°31'1312.7
2014-Oct-22 15:34N 57°10' E 011°38'1312.9
2014-Oct-22 14:33N 56°58' E 011°46'1313.1
2014-Oct-22 13:33N 56°45' E 011°54'1313.2
2014-Oct-22 12:33N 56°32' E 011°59'1312.8
2014-Oct-22 11:33N 56°20' E 012°04'1313.2
2014-Oct-22 10:34N 56°11' E 012°22'1414.1
2014-Oct-22 09:34N 56°01' E 012°40'1211.8
2014-Oct-22 08:34N 55°50' E 012°42'1212.3
2014-Oct-22 07:34N 55°37' E 012°42'9 9.1
2014-Oct-22 06:34N 55°28' E 012°43'10 9.7
2014-Oct-22 05:33N 55°19' E 012°41'1312.8
2014-Oct-22 04:34N 55°14' E 013°02'1413.1
2014-Oct-22 03:30N 55°13' E 013°26'1313.3
2014-Oct-22 02:33N 55°13' E 013°48'1313.5
2014-Oct-22 01:34N 55°13' E 014°12'1212.0
2014-Oct-22 00:33N 55°21' E 014°28'1312.7
2014-Oct-21 23:33N 55°29' E 014°44'1312.7
2014-Oct-21 22:33N 55°36' E 015°04'4113.0
2014-Oct-21 19:25N 55°56' E 016°07'  
2014-Oct-19 05:09N 54°59' E 013°58'3 4.5
2014-Oct-19 04:30N 54°59' E 013°53'5426.0
2014-Oct-19 02:25N 55°31' E 015°08'1112.5
2014-Oct-19 01:34N 55°27' E 014°51'1212.1
2014-Oct-19 00:32N 55°20' E 014°33'1212.2
2014-Oct-18 23:31N 55°10' E 014°20'7912.6
2014-Oct-18 17:16N 54°34' E 012°18'4 5.5
2014-Oct-18 16:33N 54°30' E 012°15'1010.3
2014-Oct-18 15:33N 54°24' E 012°01'1111.4
2014-Oct-18 14:33N 54°26' E 011°41'2511.9
2014-Oct-18 12:28N 54°37' E 011°03'11 9.9
2014-Oct-18 11:23N 54°45' E 010°51'4910.1
2014-Oct-18 06:31N 55°34' E 010°49'8110.1
2014-Oct-17 22:34N 56°47' E 011°50'1010.3
2014-Oct-17 21:34N 56°57' E 011°44'10 9.8
2014-Oct-17 20:33N 57°06' E 011°38'10 9.9
2014-Oct-17 19:34N 57°15' E 011°31'1010.0
2014-Oct-17 18:34N 57°25' E 011°25'10 9.6
2014-Oct-17 17:34N 57°32' E 011°14'1010.1
2014-Oct-17 16:34N 57°39' E 010°60'1010.2
2014-Oct-17 15:34N 57°46' E 010°45'9 9.0
2014-Oct-17 14:34N 57°48' E 010°29'1010.5
2014-Oct-17 13:33N 57°48' E 010°09'8111.2
2014-Oct-17 06:18N 57°41' E 007°38'63 9.2
2014-Oct-16 23:31N 58°04' E 005°48'  
Track history (hours):
 
Tides and Currents Weather Stations Pressure Air Temp Water Temp Dewpoint Dewpoint Depression Visibility Wind Speed Wind Dir Waves Ship Positions

Wolgastern

Last reported at 2014-Oct-23 08:32 UTC. Time now 2014-Oct-23 11:03 UTC.
Position N 58°07' E 005°55'.

Length 162 m; draft 6.2 m.

Type: Ship. MMSI: 255804950.

Date/timePositionNaut miles runAvg speedWind from/ knotsBaromVisibWave heightAir tempDewpointWater temp
2014-Oct-23 08:32N 58°07' E 005°55'6312.2
2014-Oct-23 03:23N 57°46' E 007°47'1311.5
2014-Oct-23 02:13N 57°47' E 008°12'913.4
2014-Oct-23 01:33N 57°48' E 008°29'5011.6
2014-Oct-22 21:17N 57°51' E 010°02'912.7
2014-Oct-22 20:33N 57°51' E 010°19'1211.8
2014-Oct-22 19:34N 57°51' E 010°42'1413.3
2014-Oct-22 18:32N 57°41' E 011°00'1313.3
2014-Oct-22 17:34N 57°33' E 011°18'1312.8
2014-Oct-22 16:33N 57°22' E 011°31'1312.7
2014-Oct-22 15:34N 57°10' E 011°38'1312.9
2014-Oct-22 14:33N 56°58' E 011°46'1313.1
2014-Oct-22 13:33N 56°45' E 011°54'1313.2
2014-Oct-22 12:33N 56°32' E 011°59'1312.8
2014-Oct-22 11:33N 56°20' E 012°04'1313.2
2014-Oct-22 10:34N 56°11' E 012°22'1414.1
2014-Oct-22 09:34N 56°01' E 012°40'1211.8
2014-Oct-22 08:34N 55°50' E 012°42'1212.3
2014-Oct-22 07:34N 55°37' E 012°42'9 9.1
2014-Oct-22 06:34N 55°28' E 012°43'10 9.7
2014-Oct-22 05:33N 55°19' E 012°41'1312.8
2014-Oct-22 04:34N 55°14' E 013°02'1413.1
2014-Oct-22 03:30N 55°13' E 013°26'1313.3
2014-Oct-22 02:33N 55°13' E 013°48'1313.5
2014-Oct-22 01:34N 55°13' E 014°12'1212.0
2014-Oct-22 00:33N 55°21' E 014°28'1312.7
2014-Oct-21 23:33N 55°29' E 014°44'1312.7
2014-Oct-21 22:33N 55°36' E 015°04'4113.0
2014-Oct-21 19:25N 55°56' E 016°07'  
2014-Oct-19 05:09N 54°59' E 013°58'3 4.5
2014-Oct-19 04:30N 54°59' E 013°53'5426.0
2014-Oct-19 02:25N 55°31' E 015°08'1112.5
2014-Oct-19 01:34N 55°27' E 014°51'1212.1
2014-Oct-19 00:32N 55°20' E 014°33'1212.2
2014-Oct-18 23:31N 55°10' E 014°20'7912.6
2014-Oct-18 17:16N 54°34' E 012°18'4 5.5
2014-Oct-18 16:33N 54°30' E 012°15'1010.3
2014-Oct-18 15:33N 54°24' E 012°01'1111.4
2014-Oct-18 14:33N 54°26' E 011°41'2511.9
2014-Oct-18 12:28N 54°37' E 011°03'11 9.9
2014-Oct-18 11:23N 54°45' E 010°51'4910.1
2014-Oct-18 06:31N 55°34' E 010°49'8110.1
2014-Oct-17 22:34N 56°47' E 011°50'1010.3
2014-Oct-17 21:34N 56°57' E 011°44'10 9.8
2014-Oct-17 20:33N 57°06' E 011°38'10 9.9
2014-Oct-17 19:34N 57°15' E 011°31'1010.0
2014-Oct-17 18:34N 57°25' E 011°25'10 9.6
2014-Oct-17 17:34N 57°32' E 011°14'1010.1
2014-Oct-17 16:34N 57°39' E 010°60'1010.2
2014-Oct-17 15:34N 57°46' E 010°45'9 9.0
2014-Oct-17 14:34N 57°48' E 010°29'1010.5
2014-Oct-17 13:33N 57°48' E 010°09'8111.2
2014-Oct-17 06:18N 57°41' E 007°38'63 9.2
2014-Oct-16 23:31N 58°04' E 005°48'  

Dump ship's entire track history